Terminal Aerodrome Forecast
Issued by NWS Cleveland, OH

Home | Current Version | Previous Version | Text Only | Print | Product List | Glossary Off
Versions: 1 2 3 4 5 6 7 8 9 10 11 12 13 14 15 16 17 18 19 20 21 22 23 24 25

000
FTUS41 KCLE 290958 AAC
TAFMFD
TAF AMD
KMFD 290958Z 2910/3006 34005KT 2SM BR OVC002
      TEMPO 2910/2912 3/4SM BR
     FM291300 35005KT 3SM BR OVC004
     FM291500 32006KT P6SM OVC008
     FM291800 35007KT P6SM OVC015
     FM300100 36004KT P6SM BKN035=

USA.gov is the U.S. government's official web portal to all federal, state and local government web resources and services.